createdAt,value
2018-01-06T00:00:04.192Z,96649.34
2018-01-06T00:01:09.019Z,96649.77
2018-01-06T00:02:13.840Z,96650.89
2018-01-06T00:03:18.672Z,96653.59
2018-01-06T00:04:24.886Z,96654.06
2018-01-06T00:05:29.806Z,96655.05
2018-01-06T00:06:35.712Z,96654.03
2018-01-06T00:07:40.359Z,96653.13
2018-01-06T00:08:45.024Z,96654.23
2018-01-06T00:09:50.612Z,96654.45
2018-01-06T00:10:55.954Z,96653.80
2018-01-06T00:12:00.708Z,96652.97
2018-01-06T00:13:05.770Z,96646.66
2018-01-06T00:14:10.532Z,96647.55
2018-01-06T00:15:16.382Z,96653.33
2018-01-06T00:16:21.212Z,96657.25
2018-01-06T00:17:26.005Z,96654.75
2018-01-06T00:18:30.806Z,96650.66
2018-01-06T00:19:35.850Z,96653.27
2018-01-06T00:20:40.627Z,96645.00
2018-01-06T00:21:45.387Z,96648.16
2018-01-06T00:22:50.131Z,96644.07
2018-01-06T00:23:54.824Z,96646.94
2018-01-06T00:24:59.603Z,96648.19
2018-01-06T00:26:04.607Z,96645.95
2018-01-06T00:27:09.460Z,96642.37
2018-01-06T00:28:14.212Z,96644.19
2018-01-06T00:29:18.944Z,96651.99
2018-01-06T00:30:23.692Z,96654.30
2018-01-06T00:31:28.503Z,96649.57
2018-01-06T00:32:33.604Z,96651.54
2018-01-06T00:33:42.843Z,96647.80
2018-01-06T00:34:47.567Z,96647.96
2018-01-06T00:35:52.391Z,96647.37
2018-01-06T00:36:57.200Z,96649.66
2018-01-06T00:38:01.988Z,96651.70
2018-01-06T00:39:07.102Z,96649.73
2018-01-06T00:40:11.804Z,96646.52
2018-01-06T00:41:16.667Z,96652.34
2018-01-06T00:42:21.510Z,96651.78
2018-01-06T00:43:26.628Z,96653.02
2018-01-06T00:44:31.496Z,96646.48
2018-01-06T00:45:36.966Z,96649.17
2018-01-06T00:46:42.362Z,96657.88
2018-01-06T00:47:47.075Z,96656.58
2018-01-06T00:48:51.765Z,96647.56
2018-01-06T00:49:56.530Z,96650.41
2018-01-06T00:51:01.382Z,96649.33
2018-01-06T00:52:06.504Z,96653.30
2018-01-06T00:53:11.376Z,96651.44
2018-01-06T00:54:16.221Z,96655.48
2018-01-06T00:55:21.606Z,96648.48
2018-01-06T00:56:26.502Z,96649.06
2018-01-06T00:57:31.332Z,96648.41
2018-01-06T00:58:36.452Z,96644.85
2018-01-06T00:59:41.880Z,96643.74
2018-01-06T01:00:46.686Z,96644.39
2018-01-06T01:01:51.656Z,96640.55
2018-01-06T01:02:57.132Z,96640.14
2018-01-06T01:04:01.984Z,96638.17
2018-01-06T01:05:06.955Z,96638.22
2018-01-06T01:06:11.566Z,96641.75
2018-01-06T01:07:16.271Z,96637.82
2018-01-06T01:08:21.006Z,96643.67
2018-01-06T01:09:25.723Z,96641.11
2018-01-06T01:10:30.424Z,96638.13
2018-01-06T01:11:35.513Z,96642.29
2018-01-06T01:12:40.264Z,96641.60
2018-01-06T01:13:44.950Z,96643.64
2018-01-06T01:14:49.600Z,96645.39
2018-01-06T01:15:54.309Z,96644.84
2018-01-06T01:16:59.032Z,96645.19
2018-01-06T01:18:04.211Z,96648.52
2018-01-06T01:19:08.884Z,96656.97
2018-01-06T01:20:13.568Z,96656.25
2018-01-06T01:21:18.267Z,96659.06
2018-01-06T01:22:22.984Z,96663.64
2018-01-06T01:23:27.593Z,96664.78
2018-01-06T01:24:32.529Z,96666.61
2018-01-06T01:25:37.297Z,96670.26
2018-01-06T01:26:42.017Z,96675.88
2018-01-06T01:27:46.720Z,96680.05
2018-01-06T01:28:51.421Z,96677.56
2018-01-06T01:29:56.142Z,96677.45
2018-01-06T01:31:01.264Z,96685.23
2018-01-06T01:32:05.978Z,96685.60
2018-01-06T01:33:10.693Z,96686.98
2018-01-06T01:34:16.215Z,96688.48
2018-01-06T01:35:20.920Z,96694.69
2018-01-06T01:36:25.637Z,96692.64
2018-01-06T01:37:30.743Z,96692.67
2018-01-06T01:38:35.486Z,96694.97
2018-01-06T01:39:40.254Z,96697.30
2018-01-06T01:40:45.047Z,96695.56
2018-01-06T01:41:49.829Z,96694.88
2018-01-06T01:42:55.602Z,96697.76
2018-01-06T01:44:00.704Z,96697.50
2018-01-06T01:45:05.378Z,96702.23
2018-01-06T01:46:10.124Z,96698.86
2018-01-06T01:47:14.841Z,96693.78
2018-01-06T01:48:19.561Z,96697.73
2018-01-06T01:49:24.328Z,96687.90
2018-01-06T01:50:29.407Z,96690.56
2018-01-06T01:51:34.159Z,96689.68
2018-01-06T01:52:38.966Z,96680.02
2018-01-06T01:53:43.697Z,96684.59
2018-01-06T01:54:48.420Z,96691.56
2018-01-06T01:55:53.311Z,96692.29
2018-01-06T01:56:58.314Z,96688.56
2018-01-06T01:58:03.832Z,96692.41
2018-01-06T01:59:08.515Z,96695.52
2018-01-06T02:00:13.275Z,96699.97
2018-01-06T02:01:18.081Z,96695.67
2018-01-06T02:02:23.781Z,96700.86
2018-01-06T02:03:28.775Z,96700.46
2018-01-06T02:04:33.598Z,96703.34
2018-01-06T02:05:38.101Z,96706.00
2018-01-06T02:06:42.660Z,96707.09
2018-01-06T02:07:47.203Z,96703.36
2018-01-06T02:08:51.759Z,96706.62
2018-01-06T02:09:56.563Z,96708.80
2018-01-06T02:11:01.161Z,96703.95
2018-01-06T02:12:05.846Z,96703.44
2018-01-06T02:13:10.489Z,96701.92
2018-01-06T02:14:15.078Z,96704.80
2018-01-06T02:15:19.672Z,96706.30
2018-01-06T02:16:24.554Z,96706.16
2018-01-06T02:17:29.060Z,96709.80
2018-01-06T02:18:33.486Z,96707.86
2018-01-06T02:19:37.992Z,96704.06
2018-01-06T02:20:42.451Z,96705.55
2018-01-06T02:21:46.945Z,96697.39
2018-01-06T02:22:51.682Z,96701.98
2018-01-06T02:23:56.156Z,96702.50
2018-01-06T02:25:00.634Z,96702.15
2018-01-06T02:26:05.129Z,96704.11
2018-01-06T02:27:10.328Z,96697.28
2018-01-06T02:28:14.841Z,96703.46
2018-01-06T02:29:19.677Z,96700.73
2018-01-06T02:30:24.284Z,96698.84
2018-01-06T02:31:28.803Z,96694.72
2018-01-06T02:32:33.485Z,96698.34
2018-01-06T02:33:38.206Z,96691.50
2018-01-06T02:34:42.801Z,96691.95
2018-01-06T02:35:47.665Z,96688.70
2018-01-06T02:36:52.288Z,96694.08
2018-01-06T02:37:57.008Z,96692.54
2018-01-06T02:39:01.707Z,96686.05
2018-01-06T02:40:06.412Z,96693.11
2018-01-06T02:41:11.127Z,96689.33
2018-01-06T02:42:16.107Z,96695.09
2018-01-06T02:43:20.762Z,96699.80
2018-01-06T02:44:25.521Z,96689.81
2018-01-06T02:45:30.142Z,96694.78
2018-01-06T02:46:34.788Z,96696.45
2018-01-06T02:47:39.478Z,96697.52
2018-01-06T02:48:44.450Z,96688.95
2018-01-06T02:49:49.104Z,96682.94
2018-01-06T02:50:53.867Z,96687.39
2018-01-06T02:51:58.523Z,96698.34
2018-01-06T02:53:03.166Z,96692.71
2018-01-06T02:54:07.738Z,96688.98
2018-01-06T02:55:13.178Z,96692.70
2018-01-06T02:56:17.756Z,96691.42
2018-01-06T02:57:22.346Z,96698.83
2018-01-06T02:58:26.919Z,96693.20
2018-01-06T02:59:31.598Z,96693.00
2018-01-06T03:00:36.298Z,96696.62
2018-01-06T03:01:41.283Z,96698.36
2018-01-06T03:02:45.980Z,96695.95
2018-01-06T03:03:50.648Z,96698.49
2018-01-06T03:04:56.320Z,96708.48
2018-01-06T03:06:01.597Z,96704.56
2018-01-06T03:07:06.296Z,96702.88
2018-01-06T03:08:11.274Z,96703.55
2018-01-06T03:09:15.962Z,96700.70
2018-01-06T03:10:20.632Z,96703.36
2018-01-06T03:11:25.363Z,96707.17
2018-01-06T03:12:30.138Z,96712.97
2018-01-06T03:13:34.821Z,96707.74
2018-01-06T03:14:39.810Z,96711.05
2018-01-06T03:15:44.467Z,96709.25
2018-01-06T03:16:49.174Z,96708.14
2018-01-06T03:17:53.909Z,96710.12
2018-01-06T03:18:58.614Z,96715.45
2018-01-06T03:20:03.375Z,96712.62
2018-01-06T03:21:10.124Z,96715.55
2018-01-06T03:22:14.893Z,96713.54
2018-01-06T03:23:19.582Z,96711.02
2018-01-06T03:24:24.273Z,96715.08
2018-01-06T03:25:29.010Z,96715.45
2018-01-06T03:26:33.719Z,96716.05
2018-01-06T03:27:38.745Z,96721.75
2018-01-06T03:28:44.422Z,96721.58
2018-01-06T03:29:49.141Z,96719.60
2018-01-06T03:30:53.846Z,96718.66
2018-01-06T03:31:58.553Z,96719.50
2018-01-06T03:33:03.221Z,96723.29
2018-01-06T03:34:08.250Z,96713.00
2018-01-06T03:35:12.967Z,96718.70
2018-01-06T03:36:17.654Z,96716.42
2018-01-06T03:37:22.407Z,96720.97
2018-01-06T03:38:27.182Z,96719.13
2018-01-06T03:39:31.878Z,96716.82
2018-01-06T03:40:36.862Z,96718.87
2018-01-06T03:41:41.615Z,96720.97
2018-01-06T03:42:46.356Z,96718.13
2018-01-06T03:43:51.096Z,96722.73
2018-01-06T03:44:55.673Z,96714.91
2018-01-06T03:46:00.183Z,96713.75
2018-01-06T03:47:05.034Z,96711.74
2018-01-06T03:48:09.608Z,96716.74
2018-01-06T03:49:15.173Z,96718.08
2018-01-06T03:50:19.721Z,96717.33
2018-01-06T03:51:24.415Z,96723.68
2018-01-06T03:52:29.113Z,96720.27
2018-01-06T03:53:33.824Z,96721.23
2018-01-06T03:54:38.623Z,96727.77
2018-01-06T03:55:43.400Z,96728.33
2018-01-06T03:56:48.103Z,96728.60
2018-01-06T03:57:52.867Z,96728.13
2018-01-06T03:58:57.848Z,96725.08
2018-01-06T04:00:02.579Z,96730.28
2018-01-06T04:01:07.287Z,96733.45
2018-01-06T04:02:11.847Z,96734.59
2018-01-06T04:03:16.411Z,96733.45
2018-01-06T04:04:20.923Z,96734.88
2018-01-06T04:05:25.696Z,96738.13
2018-01-06T04:06:30.205Z,96738.77
2018-01-06T04:07:34.700Z,96736.08
2018-01-06T04:08:39.188Z,96736.89
2018-01-06T04:09:43.686Z,96739.39
2018-01-06T04:10:48.170Z,96739.42
2018-01-06T04:11:52.960Z,96737.22
2018-01-06T04:12:57.364Z,96742.80
2018-01-06T04:14:01.774Z,96738.80
2018-01-06T04:15:06.180Z,96739.64
2018-01-06T04:16:11.235Z,96732.40
2018-01-06T04:17:15.626Z,96732.83
2018-01-06T04:18:20.393Z,96735.86
2018-01-06T04:19:24.891Z,96734.31
2018-01-06T04:20:29.424Z,96736.45
2018-01-06T04:21:33.921Z,96738.74
2018-01-06T04:22:38.722Z,96725.80
2018-01-06T04:23:43.421Z,96724.00
2018-01-06T04:24:48.737Z,96722.09
2018-01-06T04:25:53.439Z,96732.59
2018-01-06T04:26:58.122Z,96725.84
2018-01-06T04:28:03.457Z,96722.19
2018-01-06T04:29:07.972Z,96733.98
2018-01-06T04:30:12.632Z,96728.98
2018-01-06T04:31:17.568Z,96725.70
2018-01-06T04:32:22.210Z,96735.24
2018-01-06T04:33:26.844Z,96724.34
2018-01-06T04:34:31.544Z,96729.18
2018-01-06T04:35:36.226Z,96734.23
2018-01-06T04:36:40.898Z,96728.94
2018-01-06T04:37:45.868Z,96740.14
2018-01-06T04:38:50.590Z,96733.82
2018-01-06T04:39:55.250Z,96731.81
2018-01-06T04:40:59.928Z,96738.50
2018-01-06T04:42:04.624Z,96734.20
2018-01-06T04:43:09.314Z,96729.89
2018-01-06T04:44:14.241Z,96740.08
2018-01-06T04:45:18.898Z,96735.99
2018-01-06T04:46:23.635Z,96738.84
2018-01-06T04:47:28.282Z,96738.80
2018-01-06T04:48:32.959Z,96739.76
2018-01-06T04:49:37.696Z,96739.95
2018-01-06T04:50:42.650Z,96736.55
2018-01-06T04:51:47.358Z,96741.98
2018-01-06T04:52:52.079Z,96741.80
2018-01-06T04:53:56.993Z,96743.54
2018-01-06T04:55:01.648Z,96745.00
2018-01-06T04:56:06.282Z,96748.05
2018-01-06T04:57:11.378Z,96757.78
2018-01-06T04:58:16.054Z,96756.17
2018-01-06T04:59:20.853Z,96756.98
2018-01-06T05:00:25.520Z,96751.76
2018-01-06T05:01:30.160Z,96751.61
2018-01-06T05:02:34.767Z,96753.32
2018-01-06T05:03:39.775Z,96756.61
2018-01-06T05:04:44.496Z,96759.42
2018-01-06T05:05:49.214Z,96756.23
2018-01-06T05:06:53.908Z,96762.16
2018-01-06T05:07:58.690Z,96766.13
2018-01-06T05:09:03.451Z,96767.94
2018-01-06T05:10:08.418Z,96777.42
2018-01-06T05:11:13.169Z,96773.48
2018-01-06T05:12:18.160Z,96781.09
2018-01-06T05:13:23.024Z,96780.11
2018-01-06T05:14:27.720Z,96779.91
2018-01-06T05:15:32.259Z,96777.66
2018-01-06T05:16:37.098Z,96776.03
2018-01-06T05:17:41.697Z,96781.03
2018-01-06T05:18:46.243Z,96779.70
2018-01-06T05:19:50.785Z,96771.78
2018-01-06T05:20:55.804Z,96774.19
2018-01-06T05:22:00.507Z,96782.51
2018-01-06T05:23:05.518Z,96780.38
2018-01-06T05:24:10.300Z,96781.95
2018-01-06T05:25:15.028Z,96774.98
2018-01-06T05:26:19.766Z,96785.14
2018-01-06T05:27:24.474Z,96784.83
2018-01-06T05:28:29.520Z,96785.42
2018-01-06T05:29:34.485Z,96798.77
2018-01-06T05:30:39.165Z,96791.69
2018-01-06T05:31:44.034Z,96789.77
2018-01-06T05:32:48.694Z,96788.41
2018-01-06T05:33:53.332Z,96790.78
2018-01-06T05:34:58.009Z,96799.55
2018-01-06T05:36:02.969Z,96797.32
2018-01-06T05:37:07.710Z,96800.48
2018-01-06T05:38:12.402Z,96800.37
2018-01-06T05:39:17.024Z,96805.17
2018-01-06T05:40:21.634Z,96802.95
2018-01-06T05:41:26.290Z,96803.52
2018-01-06T05:42:31.838Z,96803.08
2018-01-06T05:43:36.342Z,96806.76
2018-01-06T05:44:41.015Z,96809.77
2018-01-06T05:45:45.648Z,96810.89
2018-01-06T05:46:50.283Z,96810.27
2018-01-06T05:47:54.910Z,96804.48
2018-01-06T05:48:59.850Z,96803.36
2018-01-06T05:50:04.542Z,96800.61
2018-01-06T05:51:09.240Z,96803.12
2018-01-06T05:52:13.900Z,96802.91
2018-01-06T05:53:18.548Z,96805.48
2018-01-06T05:54:23.200Z,96801.28
2018-01-06T05:55:28.121Z,96795.33
2018-01-06T05:56:33.787Z,96795.48
2018-01-06T05:57:38.431Z,96799.83
2018-01-06T05:58:43.075Z,96803.06
2018-01-06T05:59:48.387Z,96804.91
2018-01-06T06:00:53.035Z,96806.38
2018-01-06T06:01:58.011Z,96808.61
2018-01-06T06:03:02.702Z,96802.64
2018-01-06T06:04:07.382Z,96802.64
2018-01-06T06:05:12.171Z,96802.84
2018-01-06T06:06:16.861Z,96803.05
2018-01-06T06:07:21.551Z,96809.59
2018-01-06T06:08:26.562Z,96802.86
2018-01-06T06:09:31.087Z,96806.21
2018-01-06T06:10:35.595Z,96806.42
2018-01-06T06:11:40.152Z,96803.86
2018-01-06T06:12:45.338Z,96804.02
2018-01-06T06:13:50.168Z,96808.44
2018-01-06T06:14:55.138Z,96803.95
2018-01-06T06:15:59.830Z,96802.44
2018-01-06T06:17:04.515Z,96804.91
2018-01-06T06:18:09.222Z,96802.34
2018-01-06T06:19:13.979Z,96804.59
2018-01-06T06:20:19.519Z,96807.38
2018-01-06T06:21:24.430Z,96811.25
2018-01-06T06:22:29.356Z,96806.73
2018-01-06T06:23:34.959Z,96811.31
2018-01-06T06:24:39.602Z,96810.66
2018-01-06T06:25:44.300Z,96813.60
2018-01-06T06:26:49.005Z,96822.50
2018-01-06T06:27:54.135Z,96819.25
2018-01-06T06:28:58.828Z,96819.22
2018-01-06T06:30:03.860Z,96816.11
2018-01-06T06:31:08.486Z,96814.53
2018-01-06T06:32:13.191Z,96814.35
2018-01-06T06:33:17.796Z,96816.24
2018-01-06T06:34:22.680Z,96815.80
2018-01-06T06:35:27.339Z,96815.27
2018-01-06T06:36:31.946Z,96818.19
2018-01-06T06:37:36.613Z,96807.81
2018-01-06T06:38:41.328Z,96811.10
2018-01-06T06:39:46.026Z,96813.52
2018-01-06T06:40:51.134Z,96809.64
2018-01-06T06:41:55.999Z,96813.27
2018-01-06T06:43:00.764Z,96813.48
2018-01-06T06:44:05.575Z,96809.52
2018-01-06T06:45:10.715Z,96810.89
2018-01-06T06:46:15.414Z,96810.45
2018-01-06T06:47:20.452Z,96810.42
2018-01-06T06:48:25.219Z,96816.05
2018-01-06T06:49:29.959Z,96805.73
2018-01-06T06:50:34.704Z,96803.27
2018-01-06T06:51:39.379Z,96801.22
2018-01-06T06:52:44.042Z,96805.06
2018-01-06T06:53:49.062Z,96809.89
2018-01-06T06:54:53.774Z,96813.34
2018-01-06T06:55:58.436Z,96810.77
2018-01-06T06:57:03.127Z,96812.66
2018-01-06T06:58:07.860Z,96816.88
2018-01-06T06:59:12.572Z,96815.86
2018-01-06T07:00:18.632Z,96821.21
2018-01-06T07:01:23.354Z,96818.93
2018-01-06T07:02:28.087Z,96820.85
2018-01-06T07:03:32.802Z,96813.85
2018-01-06T07:04:37.519Z,96818.39
2018-01-06T07:05:42.252Z,96816.75
2018-01-06T07:06:47.259Z,96816.57
2018-01-06T07:07:51.990Z,96816.77
2018-01-06T07:08:56.673Z,96818.16
2018-01-06T07:10:01.425Z,96816.24
2018-01-06T07:11:06.200Z,96816.40
2018-01-06T07:12:10.958Z,96813.08
2018-01-06T07:13:15.943Z,96815.56
2018-01-06T07:14:21.495Z,96807.27
2018-01-06T07:15:26.901Z,96815.37
2018-01-06T07:16:31.540Z,96815.28
2018-01-06T07:17:36.279Z,96817.83
2018-01-06T07:18:41.227Z,96822.90
2018-01-06T07:19:46.194Z,96814.23
2018-01-06T07:20:50.894Z,96822.03
2018-01-06T07:21:55.570Z,96824.52
2018-01-06T07:23:00.307Z,96825.94
2018-01-06T07:24:05.096Z,96821.60
2018-01-06T07:25:09.806Z,96826.84
2018-01-06T07:26:14.813Z,96828.38
2018-01-06T07:27:19.719Z,96828.08
2018-01-06T07:28:24.953Z,96822.31
2018-01-06T07:29:29.662Z,96826.27
2018-01-06T07:30:34.224Z,96830.17
2018-01-06T07:31:38.768Z,96827.73
2018-01-06T07:32:43.665Z,96838.04
2018-01-06T07:33:48.208Z,96844.83
2018-01-06T07:34:52.774Z,96840.29
2018-01-06T07:35:57.602Z,96848.95
2018-01-06T07:37:02.221Z,96852.38
2018-01-06T07:38:06.677Z,96854.08
2018-01-06T07:39:11.556Z,96863.48
2018-01-06T07:40:16.092Z,96862.16
2018-01-06T07:41:20.729Z,96867.34
2018-01-06T07:42:25.246Z,96869.30
2018-01-06T07:43:29.914Z,96864.94
2018-01-06T07:44:34.634Z,96868.97
2018-01-06T07:45:40.260Z,96867.98
2018-01-06T07:46:44.994Z,96869.25
2018-01-06T07:47:50.100Z,96864.95
2018-01-06T07:48:55.008Z,96871.98
2018-01-06T07:49:59.768Z,96877.72
2018-01-06T07:51:04.448Z,96873.16
2018-01-06T07:52:09.459Z,96873.70
2018-01-06T07:53:14.140Z,96873.11
2018-01-06T07:54:19.039Z,96876.25
2018-01-06T07:55:23.954Z,96884.20
2018-01-06T07:56:28.882Z,96885.00
2018-01-06T07:57:33.581Z,96890.33
2018-01-06T07:58:38.629Z,96894.53
2018-01-06T07:59:43.452Z,96889.31
2018-01-06T08:00:48.433Z,96887.97
2018-01-06T08:01:52.935Z,96876.91
2018-01-06T08:02:57.902Z,96882.13
2018-01-06T08:04:02.447Z,96882.20
2018-01-06T08:05:07.432Z,96878.75
2018-01-06T08:06:12.077Z,96879.06
2018-01-06T08:07:16.644Z,96886.28
2018-01-06T08:08:21.380Z,96887.66
2018-01-06T08:09:26.234Z,96893.77
2018-01-06T08:10:30.923Z,96897.79
2018-01-06T08:11:35.836Z,96897.23
2018-01-06T08:12:40.503Z,96900.72
2018-01-06T08:13:45.153Z,96905.40
2018-01-06T08:14:49.844Z,96903.58
2018-01-06T08:15:54.589Z,96907.08
2018-01-06T08:16:59.233Z,96905.05
2018-01-06T08:18:04.333Z,96894.39
2018-01-06T08:19:10.104Z,96896.11
2018-01-06T08:20:14.977Z,96897.44
2018-01-06T08:21:19.642Z,96896.92
2018-01-06T08:22:24.328Z,96892.77
2018-01-06T08:23:29.052Z,96900.31
2018-01-06T08:24:35.585Z,96903.81
2018-01-06T08:25:40.407Z,96904.82
2018-01-06T08:26:45.039Z,96909.94
2018-01-06T08:27:49.680Z,96913.98
2018-01-06T08:28:54.347Z,96916.22
2018-01-06T08:29:59.473Z,96916.31
2018-01-06T08:31:05.014Z,96911.98
2018-01-06T08:32:09.666Z,96913.84
2018-01-06T08:33:14.391Z,96912.47
2018-01-06T08:34:19.071Z,96915.63
2018-01-06T08:35:23.866Z,96915.80
2018-01-06T08:36:28.855Z,96917.03
2018-01-06T08:37:34.301Z,96920.53
2018-01-06T08:38:39.070Z,96924.16
2018-01-06T08:39:43.741Z,96926.64
2018-01-06T08:40:48.430Z,96932.31
2018-01-06T08:41:53.182Z,96928.90
2018-01-06T08:42:58.756Z,96928.87
2018-01-06T08:44:03.475Z,96936.03
2018-01-06T08:45:08.182Z,96944.27
2018-01-06T08:46:13.253Z,96946.20
2018-01-06T08:47:18.568Z,96947.19
2018-01-06T08:48:24.540Z,96942.48
2018-01-06T08:49:29.275Z,96945.30
2018-01-06T08:50:35.852Z,96953.05
2018-01-06T08:51:40.572Z,96951.91
2018-01-06T08:52:46.395Z,96949.48
2018-01-06T08:53:51.701Z,96953.83
2018-01-06T08:54:57.037Z,96947.66
2018-01-06T08:56:03.414Z,96953.54
2018-01-06T08:57:08.202Z,96952.17
2018-01-06T08:58:13.725Z,96958.22
2018-01-06T08:59:19.310Z,96962.16
2018-01-06T09:00:25.649Z,96964.57
2018-01-06T09:01:30.794Z,96963.55
2018-01-06T09:02:36.315Z,96965.86
2018-01-06T09:03:41.866Z,96970.48
2018-01-06T09:04:50.652Z,96968.59
2018-01-06T09:05:55.626Z,96965.48
2018-01-06T09:07:00.281Z,96972.15
2018-01-06T09:08:05.911Z,96973.48
2018-01-06T09:09:11.175Z,96979.29
2018-01-06T09:10:17.068Z,96974.80
2018-01-06T09:11:22.875Z,96978.82
2018-01-06T09:12:28.144Z,96983.80
2018-01-06T09:13:33.228Z,96981.42
2018-01-06T09:14:38.313Z,96976.80
2018-01-06T09:15:43.738Z,96982.04
2018-01-06T09:16:49.203Z,96976.73
2018-01-06T09:17:55.057Z,96975.64
2018-01-06T09:19:00.251Z,96979.55
2018-01-06T09:20:06.013Z,96977.94
2018-01-06T09:21:11.196Z,96981.13
2018-01-06T09:22:16.400Z,96979.29
2018-01-06T09:23:21.546Z,96977.45
2018-01-06T09:24:27.167Z,96983.81
2018-01-06T09:25:32.899Z,96982.08
2018-01-06T09:26:37.587Z,96980.23
2018-01-06T09:27:42.316Z,96976.23
2018-01-06T09:28:48.019Z,96975.45
2018-01-06T09:29:53.113Z,96975.91
2018-01-06T09:30:59.141Z,96971.38
2018-01-06T09:32:04.202Z,96976.97
2018-01-06T09:33:09.723Z,96981.82
2018-01-06T09:34:14.972Z,96982.70
2018-01-06T09:35:20.652Z,96989.01
2018-01-06T09:36:26.875Z,96991.66
2018-01-06T09:37:32.652Z,96996.84
2018-01-06T09:38:37.669Z,97000.77
2018-01-06T09:39:43.006Z,97002.92
2018-01-06T09:40:48.724Z,97000.91
2018-01-06T09:41:53.947Z,96999.00
2018-01-06T09:42:59.611Z,96997.69
2018-01-06T09:44:05.023Z,96999.00
2018-01-06T09:45:09.992Z,96997.02
2018-01-06T09:46:15.902Z,97002.12
2018-01-06T09:47:21.292Z,96992.86
2018-01-06T09:48:26.621Z,96999.83
2018-01-06T09:49:32.154Z,96999.70
2018-01-06T09:50:39.481Z,97000.48
2018-01-06T09:51:44.272Z,97004.82
2018-01-06T09:52:49.124Z,97003.84
2018-01-06T09:53:54.939Z,97005.41
2018-01-06T09:54:59.619Z,97003.19
2018-01-06T09:56:06.432Z,97003.02
2018-01-06T09:57:11.888Z,97004.54
2018-01-06T09:58:17.279Z,97003.13
2018-01-06T09:59:22.455Z,97007.80
2018-01-06T10:00:27.943Z,97001.48
2018-01-06T10:01:33.368Z,97007.30
2018-01-06T10:02:40.347Z,97009.64
2018-01-06T10:03:46.526Z,97009.78
2018-01-06T10:04:51.111Z,97015.16
2018-01-06T10:05:56.860Z,97011.62
2018-01-06T10:07:02.458Z,97008.94
2018-01-06T10:08:09.780Z,97012.17
2018-01-06T10:09:16.029Z,97009.78
2018-01-06T10:10:21.861Z,97015.36
2018-01-06T10:11:26.629Z,97012.47
2018-01-06T10:12:31.354Z,97013.64
2018-01-06T10:13:37.029Z,97016.20
2018-01-06T10:14:41.892Z,97019.15
2018-01-06T10:15:47.930Z,97015.55
2018-01-06T10:16:53.224Z,97020.48
2018-01-06T10:17:58.535Z,97016.83
2018-01-06T10:19:04.521Z,97014.81
2018-01-06T10:20:09.718Z,97020.71
2018-01-06T10:21:14.942Z,97023.53
2018-01-06T10:22:20.348Z,97025.52
2018-01-06T10:23:26.428Z,97026.82
2018-01-06T10:24:33.152Z,97027.60
2018-01-06T10:25:38.646Z,97029.39
2018-01-06T10:26:43.869Z,97023.25
2018-01-06T10:27:50.808Z,97024.59
2018-01-06T10:28:57.402Z,97024.89
2018-01-06T10:30:03.669Z,97025.36
2018-01-06T10:31:08.690Z,97025.94
2018-01-06T10:32:13.569Z,97026.67
2018-01-06T10:33:19.092Z,97020.69
2018-01-06T10:34:25.260Z,97026.59
2018-01-06T10:35:36.627Z,97026.80
2018-01-06T10:36:42.615Z,97024.68
2018-01-06T10:37:49.008Z,97028.08
2018-01-06T10:38:55.470Z,97024.95
2018-01-06T10:40:00.526Z,97030.45
2018-01-06T10:41:06.924Z,97031.01
2018-01-06T10:42:12.150Z,97025.59
2018-01-06T10:43:17.425Z,97025.23
2018-01-06T10:44:23.378Z,97025.27
2018-01-06T10:45:28.642Z,97021.33
2018-01-06T10:46:34.384Z,97026.53
2018-01-06T10:47:39.564Z,97023.50
2018-01-06T10:48:46.717Z,97022.26
2018-01-06T10:49:51.981Z,97021.64
2018-01-06T10:50:57.056Z,97017.14
2018-01-06T10:52:02.332Z,97016.98
2018-01-06T10:53:09.968Z,97019.25
2018-01-06T10:54:16.902Z,97021.36
2018-01-06T10:55:25.385Z,97020.35
2018-01-06T10:56:31.703Z,97027.93
2018-01-06T10:57:38.618Z,97027.67
2018-01-06T10:58:45.999Z,97030.36
2018-01-06T10:59:51.327Z,97031.88
2018-01-06T11:01:01.770Z,97030.10
2018-01-06T11:02:09.398Z,97033.69
2018-01-06T11:03:18.813Z,97038.44
2018-01-06T11:04:23.911Z,97035.58
2018-01-06T11:05:30.175Z,97039.15
2018-01-06T11:06:35.835Z,97038.45
2018-01-06T11:07:44.051Z,97037.44
2018-01-06T11:08:49.872Z,97043.34
2018-01-06T11:09:59.194Z,97041.38
2018-01-06T11:11:10.283Z,97039.05
2018-01-06T11:12:19.548Z,97040.33
2018-01-06T11:13:26.984Z,97039.86
2018-01-06T11:14:36.034Z,97041.33
2018-01-06T11:15:41.982Z,97045.25
2018-01-06T11:16:49.654Z,97042.37
2018-01-06T11:17:57.024Z,97044.09
2018-01-06T11:19:07.960Z,97042.69
2018-01-06T11:20:17.002Z,97035.74
2018-01-06T11:21:26.214Z,97028.20
2018-01-06T11:22:36.482Z,97025.58
2018-01-06T11:23:45.949Z,97030.06
2018-01-06T11:24:54.054Z,97035.50
2018-01-06T11:26:04.519Z,97037.00
2018-01-06T11:27:12.440Z,97034.89
2018-01-06T11:28:22.560Z,97035.97
2018-01-06T11:29:33.009Z,97031.58
2018-01-06T11:30:39.998Z,97033.27
2018-01-06T11:31:48.744Z,97033.23
2018-01-06T11:32:59.388Z,97034.66
2018-01-06T11:34:07.505Z,97029.83
2018-01-06T11:35:18.668Z,97027.27
2018-01-06T11:36:27.293Z,97025.37
2018-01-06T11:37:34.431Z,97024.28
2018-01-06T11:38:43.679Z,97020.00
2018-01-06T11:39:52.565Z,97021.91
2018-01-06T11:41:03.896Z,97025.54
2018-01-06T11:42:14.657Z,97022.11
2018-01-06T11:43:25.647Z,97026.90
2018-01-06T11:44:34.283Z,97025.00
2018-01-06T11:45:42.716Z,97027.85
2018-01-06T11:46:51.535Z,97022.69
2018-01-06T11:47:59.309Z,97019.73
2018-01-06T11:49:08.558Z,97026.24
2018-01-06T11:50:18.157Z,97025.08
2018-01-06T11:51:26.914Z,97018.86
2018-01-06T11:52:37.378Z,97025.73
2018-01-06T11:53:46.442Z,97018.38
2018-01-06T11:54:56.228Z,97020.80
2018-01-06T11:56:05.579Z,97022.19
2018-01-06T11:57:14.322Z,97021.30
2018-01-06T11:58:23.884Z,97021.19
2018-01-06T11:59:34.375Z,97019.77
2018-01-06T12:00:42.968Z,97024.67
2018-01-06T12:01:52.928Z,97024.05
2018-01-06T12:03:02.673Z,97023.06
2018-01-06T12:04:13.322Z,97019.36
2018-01-06T12:05:22.542Z,97029.82
2018-01-06T12:06:32.260Z,97025.13
2018-01-06T12:07:40.288Z,97023.16
2018-01-06T12:08:47.879Z,97032.45
2018-01-06T12:09:58.943Z,97037.72
2018-01-06T12:11:07.637Z,97035.70
2018-01-06T12:12:19.023Z,97032.67
2018-01-06T12:13:27.422Z,97026.73
2018-01-06T12:14:37.474Z,97027.25
2018-01-06T12:15:46.249Z,97031.02
2018-01-06T12:16:54.801Z,97026.60
2018-01-06T12:18:03.821Z,97024.80
2018-01-06T12:19:12.609Z,97022.38
2018-01-06T12:20:21.434Z,97031.61
2018-01-06T12:21:33.198Z,97030.25
2018-01-06T12:22:46.643Z,97028.39
2018-01-06T12:23:58.981Z,97026.20
2018-01-06T12:25:10.876Z,97028.41
2018-01-06T12:26:20.517Z,97031.06
2018-01-06T12:27:30.350Z,97031.91
2018-01-06T12:28:40.725Z,97025.56
2018-01-06T12:29:50.443Z,97026.20
2018-01-06T12:31:01.819Z,97023.58
2018-01-06T12:32:10.796Z,97017.14
2018-01-06T12:33:21.946Z,97025.42
2018-01-06T12:34:32.066Z,97025.52
2018-01-06T12:35:43.042Z,97026.31
2018-01-06T12:38:11.466Z,97033.72
2018-01-06T12:39:25.373Z,97034.52
2018-01-06T12:40:36.477Z,97032.59
2018-01-06T12:41:49.789Z,97034.68
2018-01-06T12:43:03.129Z,97034.16
2018-01-06T12:44:12.001Z,97033.81
2018-01-06T12:45:22.479Z,97031.75
2018-01-06T12:46:35.349Z,97031.08
2018-01-06T12:47:46.074Z,97033.73
2018-01-06T12:48:55.908Z,97033.77
2018-01-06T12:50:06.366Z,97044.34
2018-01-06T12:51:16.822Z,97042.89